createdAt,value
2022-11-09T00:00:43.716Z,21.40
2022-11-09T00:03:13.026Z,21.60
2022-11-09T00:05:40.791Z,22.13
2022-11-09T00:08:09.832Z,21.93
2022-11-09T00:10:37.929Z,22.70
2022-11-09T00:13:05.895Z,22.40
2022-11-09T00:15:33.473Z,22.57
2022-11-09T00:18:02.670Z,23.23
2022-11-09T00:20:31.861Z,22.83
2022-11-09T00:22:59.408Z,23.50
2022-11-09T00:25:26.977Z,24.13
2022-11-09T00:27:54.898Z,24.20
2022-11-09T00:30:22.481Z,25.07
2022-11-09T00:32:50.001Z,24.17
2022-11-09T00:35:17.636Z,24.87
2022-11-09T00:37:46.606Z,24.00
2022-11-09T00:40:14.296Z,23.83
2022-11-09T00:42:41.911Z,23.27
2022-11-09T00:45:10.096Z,23.73
2022-11-09T00:47:37.612Z,24.13
2022-11-09T00:50:05.858Z,23.80
2022-11-09T00:52:33.447Z,24.60
2022-11-09T00:55:02.337Z,23.77
2022-11-09T00:57:29.902Z,24.40
2022-11-09T00:59:57.457Z,24.80
2022-11-09T01:02:25.009Z,24.00
2022-11-09T01:04:52.566Z,24.50
2022-11-09T01:07:20.138Z,24.30
2022-11-09T01:09:47.726Z,25.03
2022-11-09T01:12:16.592Z,24.53
2022-11-09T01:14:44.362Z,25.27
2022-11-09T01:17:11.908Z,24.83
2022-11-09T01:19:39.483Z,25.30
2022-11-09T01:22:07.121Z,25.00
2022-11-09T01:24:34.686Z,25.00
2022-11-09T01:27:02.226Z,24.93
2022-11-09T01:29:32.357Z,25.10
2022-11-09T01:31:59.877Z,26.07
2022-11-09T01:34:28.900Z,25.10
2022-11-09T01:36:56.448Z,26.00
2022-11-09T01:39:24.027Z,26.93
2022-11-09T01:41:51.681Z,26.33
2022-11-09T01:44:20.929Z,26.37
2022-11-09T01:46:54.892Z,26.17
2022-11-09T01:49:32.326Z,26.73
2022-11-09T01:52:04.146Z,26.57
2022-11-09T01:54:37.301Z,26.33
2022-11-09T01:57:10.346Z,26.37
2022-11-09T01:59:42.742Z,26.07
2022-11-09T02:02:12.073Z,26.33
2022-11-09T02:04:42.378Z,26.50
2022-11-09T02:07:10.134Z,27.13
2022-11-09T02:09:42.633Z,26.90
2022-11-09T02:12:11.525Z,27.27
2022-11-09T02:14:40.263Z,28.97
2022-11-09T02:17:08.970Z,27.33
2022-11-09T02:19:37.884Z,28.60
2022-11-09T02:22:06.816Z,28.30
2022-11-09T02:24:35.025Z,27.90
2022-11-09T02:27:02.706Z,29.30
2022-11-09T02:29:38.132Z,29.20
2022-11-09T02:32:10.927Z,30.37
2022-11-09T02:34:38.467Z,29.90
2022-11-09T02:37:07.455Z,31.07
2022-11-09T02:39:35.622Z,30.20
2022-11-09T02:42:10.218Z,30.60
2022-11-09T02:44:42.753Z,30.63
2022-11-09T02:47:10.367Z,30.87
2022-11-09T02:49:37.970Z,30.23
2022-11-09T02:52:07.025Z,32.27
2022-11-09T02:54:34.613Z,32.10
2022-11-09T02:57:02.182Z,32.03
2022-11-09T02:59:29.765Z,32.60
2022-11-09T03:01:57.313Z,31.30
2022-11-09T03:04:25.032Z,31.30
2022-11-09T03:06:52.630Z,32.37
2022-11-09T03:09:21.583Z,31.37
2022-11-09T03:11:49.549Z,31.40
2022-11-09T03:14:17.528Z,30.80
2022-11-09T03:16:50.188Z,32.33
2022-11-09T03:19:18.409Z,32.17
2022-11-09T03:21:46.293Z,31.97
2022-11-09T03:24:13.922Z,31.47
2022-11-09T03:26:42.816Z,32.27
2022-11-09T03:29:10.373Z,31.80
2022-11-09T03:31:37.917Z,31.40
2022-11-09T03:34:05.474Z,31.43
2022-11-09T03:36:33.015Z,31.60
2022-11-09T03:39:00.584Z,30.80
2022-11-09T03:41:28.164Z,31.10
2022-11-09T03:43:57.048Z,31.03
2022-11-09T03:46:24.621Z,30.77
2022-11-09T03:48:52.266Z,31.90
2022-11-09T03:51:19.932Z,30.67
2022-11-09T03:53:47.473Z,31.23
2022-11-09T03:56:15.049Z,30.90
2022-11-09T03:58:42.614Z,31.83
2022-11-09T04:01:11.942Z,31.10
2022-11-09T04:03:39.573Z,30.50
2022-11-09T04:06:07.450Z,30.53
2022-11-09T04:08:35.201Z,30.73
2022-11-09T04:11:02.847Z,31.27
2022-11-09T04:13:30.393Z,31.00
2022-11-09T04:15:57.951Z,31.50
2022-11-09T04:18:26.866Z,29.53
2022-11-09T04:20:54.405Z,30.13
2022-11-09T04:23:22.370Z,30.20
2022-11-09T04:25:50.118Z,30.43
2022-11-09T04:28:17.712Z,30.53
2022-11-09T04:30:45.265Z,31.73
2022-11-09T04:33:12.804Z,31.10
2022-11-09T04:35:41.723Z,32.37
2022-11-09T04:38:12.583Z,31.53
2022-11-09T04:40:40.334Z,33.00
2022-11-09T04:43:11.558Z,32.63
2022-11-09T04:45:39.193Z,34.23
2022-11-09T04:48:08.380Z,30.80
2022-11-09T04:50:36.105Z,30.33
2022-11-09T04:53:10.051Z,32.50
2022-11-09T04:55:38.081Z,32.23
2022-11-09T04:58:06.189Z,31.37
2022-11-09T05:00:34.661Z,30.93
2022-11-09T05:03:02.806Z,30.80
2022-11-09T05:05:31.139Z,30.90
2022-11-09T05:07:58.692Z,30.77
2022-11-09T05:10:27.602Z,30.93
2022-11-09T05:12:58.899Z,30.10
2022-11-09T05:15:26.909Z,31.07
2022-11-09T05:17:54.741Z,31.40
2022-11-09T05:20:22.429Z,31.77
2022-11-09T05:23:07.344Z,30.73
2022-11-09T05:25:36.454Z,31.00
2022-11-09T05:28:04.153Z,32.40
2022-11-09T05:30:31.737Z,32.60
2022-11-09T05:32:59.305Z,32.40
2022-11-09T05:35:26.923Z,32.40
2022-11-09T05:37:54.519Z,32.57
2022-11-09T05:40:22.473Z,32.90
2022-11-09T05:42:51.429Z,32.43
2022-11-09T05:48:08.367Z,32.80
2022-11-09T05:50:35.976Z,33.90
2022-11-09T05:53:03.552Z,32.70
2022-11-09T05:55:31.115Z,32.57
2022-11-09T05:58:00.217Z,33.80
2022-11-09T06:00:28.555Z,33.33
2022-11-09T06:03:02.978Z,32.93
2022-11-09T06:05:30.638Z,32.60
2022-11-09T06:08:03.346Z,33.07
2022-11-09T06:10:30.899Z,33.40
2022-11-09T06:13:00.018Z,33.40
2022-11-09T06:15:27.593Z,32.00
2022-11-09T06:17:55.405Z,33.20
2022-11-09T06:20:23.979Z,33.10
2022-11-09T06:22:59.953Z,33.10
2022-11-09T06:25:31.650Z,32.27
2022-11-09T06:28:00.742Z,33.13
2022-11-09T06:30:28.346Z,32.70
2022-11-09T06:32:59.942Z,33.40
2022-11-09T06:35:27.581Z,33.37
2022-11-09T06:37:57.298Z,33.33
2022-11-09T06:40:24.889Z,33.43
2022-11-09T06:42:52.655Z,33.10
2022-11-09T06:45:21.661Z,32.80
2022-11-09T06:47:49.214Z,33.40
2022-11-09T06:50:17.014Z,33.60
2022-11-09T06:52:44.587Z,34.53
2022-11-09T06:55:12.192Z,33.80
2022-11-09T06:57:39.796Z,32.93
2022-11-09T07:00:08.822Z,33.20
2022-11-09T07:02:37.716Z,34.13
2022-11-09T07:05:05.743Z,33.90
2022-11-09T07:07:33.287Z,33.67
2022-11-09T07:10:00.821Z,33.57
2022-11-09T07:12:29.819Z,34.00
2022-11-09T07:14:57.365Z,33.87
2022-11-09T07:17:24.977Z,34.47
2022-11-09T07:19:53.867Z,34.70
2022-11-09T07:22:21.474Z,35.80
2022-11-09T07:24:49.053Z,33.60
2022-11-09T07:27:16.812Z,33.87
2022-11-09T07:29:44.352Z,34.43
2022-11-09T07:32:11.892Z,34.60
2022-11-09T07:34:39.478Z,33.43
2022-11-09T07:37:08.369Z,33.47
2022-11-09T07:39:35.915Z,32.73
2022-11-09T07:42:03.490Z,33.03
2022-11-09T07:44:31.025Z,33.30
2022-11-09T07:46:58.586Z,34.60
2022-11-09T07:49:26.172Z,33.17
2022-11-09T07:51:53.739Z,33.40
2022-11-09T07:54:22.757Z,33.93
2022-11-09T07:56:50.305Z,33.60
2022-11-09T07:59:17.871Z,32.33
2022-11-09T08:01:45.448Z,33.20
2022-11-09T08:04:13.046Z,34.03
2022-11-09T08:06:40.644Z,33.60
2022-11-09T08:09:08.420Z,34.40
2022-11-09T08:11:37.326Z,33.30
2022-11-09T08:14:04.910Z,33.23
2022-11-09T08:16:37.591Z,33.20
2022-11-09T08:19:05.622Z,33.43
2022-11-09T08:21:33.190Z,33.20
2022-11-09T08:24:00.733Z,32.23
2022-11-09T08:26:28.284Z,33.47
2022-11-09T08:28:57.180Z,32.30
2022-11-09T08:31:24.804Z,32.90
2022-11-09T08:33:52.349Z,33.47
2022-11-09T08:36:20.066Z,32.10
2022-11-09T08:38:47.818Z,32.40
2022-11-09T08:41:15.466Z,32.33
2022-11-09T08:43:43.025Z,33.37
2022-11-09T08:46:11.933Z,32.20
2022-11-09T08:48:39.648Z,32.97
2022-11-09T08:51:07.497Z,32.70
2022-11-09T08:53:35.052Z,32.77
2022-11-09T08:56:02.781Z,34.13
2022-11-09T08:58:30.864Z,32.50
2022-11-09T09:00:58.551Z,32.50
2022-11-09T09:03:27.521Z,33.37
2022-11-09T09:05:55.108Z,32.77
2022-11-09T09:08:23.183Z,32.90
2022-11-09T09:10:51.178Z,33.60
2022-11-09T09:13:22.459Z,33.43
2022-11-09T09:15:50.223Z,33.17
2022-11-09T09:18:18.090Z,31.77
2022-11-09T09:20:47.218Z,32.00
2022-11-09T09:23:15.928Z,32.30
2022-11-09T09:25:43.882Z,30.33
2022-11-09T09:28:11.499Z,30.30
2022-11-09T09:30:39.062Z,30.27
2022-11-09T09:33:06.590Z,30.10
2022-11-09T09:35:34.220Z,31.07
2022-11-09T09:38:03.139Z,29.43
2022-11-09T09:40:36.002Z,29.27
2022-11-09T09:43:04.190Z,29.03
2022-11-09T09:45:35.092Z,29.23
2022-11-09T09:48:14.723Z,29.00
2022-11-09T09:50:49.553Z,27.87
2022-11-09T09:53:27.740Z,29.30
2022-11-09T09:56:01.056Z,27.73
2022-11-09T09:58:30.554Z,27.23
2022-11-09T10:01:01.381Z,28.10
2022-11-09T10:03:29.073Z,26.77
2022-11-09T10:06:03.612Z,26.27
2022-11-09T10:08:40.947Z,26.07
2022-11-09T10:11:23.286Z,25.67
2022-11-09T10:14:10.104Z,26.27
2022-11-09T10:16:46.437Z,25.07
2022-11-09T10:19:35.642Z,24.93
2022-11-09T10:22:11.544Z,24.90
2022-11-09T10:25:18.644Z,24.20
2022-11-09T10:27:38.505Z,23.53
2022-11-09T10:30:14.897Z,23.47
2022-11-09T10:32:44.527Z,22.90
2022-11-09T10:35:19.511Z,22.77
2022-11-09T10:37:49.895Z,22.20
2022-11-09T10:40:23.368Z,21.70
2022-11-09T10:42:54.323Z,21.40
2022-11-09T10:45:30.813Z,20.90
2022-11-09T10:47:58.928Z,20.20
2022-11-09T10:50:31.548Z,20.80
2022-11-09T10:53:11.004Z,19.90
2022-11-09T10:55:50.195Z,20.43
2022-11-09T10:58:26.741Z,19.23
2022-11-09T11:01:03.632Z,19.30
2022-11-09T11:03:33.988Z,18.90
2022-11-09T11:06:02.821Z,18.20
2022-11-09T11:08:34.293Z,18.60
2022-11-09T11:11:38.319Z,17.70
2022-11-09T11:14:22.734Z,19.10
2022-11-09T11:16:52.969Z,17.43
2022-11-09T11:19:32.274Z,18.53
2022-11-09T11:22:23.574Z,18.70
2022-11-09T11:24:59.361Z,17.80
2022-11-09T11:27:37.248Z,17.70
2022-11-09T11:30:11.659Z,17.43
2022-11-09T11:32:39.429Z,18.40
2022-11-09T11:35:14.520Z,18.10
2022-11-09T11:37:49.980Z,18.57
2022-11-09T11:40:23.789Z,18.20
2022-11-09T11:43:22.198Z,18.40
2022-11-09T11:45:56.544Z,17.23
2022-11-09T11:48:54.397Z,16.80
2022-11-09T11:51:33.211Z,15.87
2022-11-09T11:54:14.930Z,15.90
2022-11-09T11:56:46.808Z,15.40
2022-11-09T11:59:41.881Z,15.83
2022-11-09T12:02:28.369Z,15.83
2022-11-09T12:05:36.084Z,16.47
2022-11-09T12:08:12.073Z,16.50
2022-11-09T12:10:51.049Z,15.60
2022-11-09T12:13:43.393Z,15.90
2022-11-09T12:16:22.042Z,15.20
2022-11-09T12:18:58.550Z,15.30
2022-11-09T12:21:35.784Z,16.03
2022-11-09T12:24:16.271Z,14.70
2022-11-09T12:27:17.833Z,15.00
2022-11-09T12:29:52.316Z,14.30
2022-11-09T12:32:29.825Z,14.57
2022-11-09T12:35:17.353Z,14.80
2022-11-09T12:37:50.438Z,13.50
2022-11-09T12:40:24.481Z,13.20
2022-11-09T12:43:00.330Z,14.30
2022-11-09T12:45:32.557Z,13.97
2022-11-09T12:48:06.544Z,14.33
2022-11-09T12:50:34.986Z,13.80
2022-11-09T12:53:05.140Z,14.13
2022-11-09T12:55:43.974Z,14.30
2022-11-09T12:58:22.707Z,13.27
2022-11-09T13:00:53.560Z,13.00
2022-11-09T13:03:26.632Z,13.43
2022-11-09T13:06:12.963Z,13.37
2022-11-09T13:08:41.436Z,13.77
2022-11-09T13:11:12.015Z,13.33
2022-11-09T13:13:39.570Z,12.40
2022-11-09T13:16:11.555Z,13.70
2022-11-09T13:18:52.240Z,13.00
2022-11-09T13:21:35.865Z,13.43
2022-11-09T13:24:53.895Z,14.10
2022-11-09T13:27:36.784Z,13.33
2022-11-09T13:30:40.743Z,13.63
2022-11-09T13:33:23.821Z,13.80
2022-11-09T13:36:17.652Z,13.27
2022-11-09T13:38:45.504Z,13.57
2022-11-09T13:41:43.864Z,13.73
2022-11-09T13:44:18.964Z,13.60
2022-11-09T13:46:50.245Z,13.50
2022-11-09T13:49:44.381Z,14.00
2022-11-09T13:52:42.388Z,13.23
2022-11-09T13:55:19.922Z,13.83
2022-11-09T13:57:47.842Z,13.63
2022-11-09T14:00:23.228Z,13.60
2022-11-09T14:02:57.169Z,13.70
2022-11-09T14:05:30.359Z,12.30
2022-11-09T14:08:02.545Z,13.20
2022-11-09T14:10:53.196Z,12.83
2022-11-09T14:13:45.245Z,13.80
2022-11-09T14:16:25.260Z,12.90
2022-11-09T14:19:05.413Z,13.40
2022-11-09T14:21:43.777Z,13.30
2022-11-09T14:24:17.965Z,13.50
2022-11-09T14:27:01.217Z,13.67
2022-11-09T14:29:32.834Z,13.83
2022-11-09T14:32:01.703Z,13.83
2022-11-09T14:34:30.980Z,13.77
2022-11-09T14:37:01.899Z,13.43
2022-11-09T14:39:34.703Z,13.93
2022-11-09T14:42:02.241Z,14.03
2022-11-09T14:44:35.821Z,14.37
2022-11-09T14:47:04.394Z,14.67
2022-11-09T14:49:33.661Z,14.77
2022-11-09T14:52:01.734Z,14.53
2022-11-09T14:54:29.545Z,13.87
2022-11-09T14:56:57.314Z,14.00
2022-11-09T14:59:31.334Z,15.07
2022-11-09T15:02:05.637Z,14.90
2022-11-09T15:04:52.208Z,15.67
2022-11-09T15:07:22.877Z,14.93
2022-11-09T15:09:54.200Z,14.57
2022-11-09T15:12:23.080Z,15.90
2022-11-09T15:14:53.423Z,16.80
2022-11-09T15:17:25.826Z,16.40
2022-11-09T15:19:57.046Z,16.87
2022-11-09T15:22:50.302Z,16.90
2022-11-09T15:25:24.962Z,17.13
2022-11-09T15:28:02.463Z,17.17
2022-11-09T15:30:33.339Z,19.17
2022-11-09T15:33:01.682Z,18.70
2022-11-09T15:35:30.629Z,19.70
2022-11-09T15:37:58.254Z,20.33
2022-11-09T15:40:26.385Z,18.73
2022-11-09T15:42:54.081Z,19.57
2022-11-09T15:45:22.131Z,21.17
2022-11-09T15:47:52.141Z,20.80
2022-11-09T15:50:23.281Z,22.47
2022-11-09T15:52:52.685Z,21.90
2022-11-09T15:55:23.458Z,21.60
2022-11-09T15:57:52.616Z,22.80
2022-11-09T16:00:22.268Z,24.13
2022-11-09T16:02:50.089Z,23.83
2022-11-09T16:05:18.654Z,24.97
2022-11-09T16:07:49.866Z,25.50
2022-11-09T16:10:20.257Z,26.60
2022-11-09T16:12:48.113Z,25.80
2022-11-09T16:15:15.760Z,26.43
2022-11-09T16:17:43.293Z,27.23
2022-11-09T16:20:11.561Z,27.80
2022-11-09T16:22:39.104Z,28.00
2022-11-09T16:25:07.259Z,26.80
2022-11-09T16:27:49.735Z,28.00
2022-11-09T16:30:18.768Z,27.57
2022-11-09T16:32:46.301Z,27.60
2022-11-09T16:35:29.447Z,29.23
2022-11-09T16:38:00.051Z,28.23
2022-11-09T16:40:28.927Z,31.07
2022-11-09T16:43:00.231Z,29.43
2022-11-09T16:45:33.151Z,29.23
2022-11-09T16:48:05.360Z,29.07
2022-11-09T16:50:32.949Z,28.93
2022-11-09T16:53:00.511Z,29.40
2022-11-09T16:55:28.093Z,28.60
2022-11-09T16:57:56.052Z,27.47
2022-11-09T17:00:37.438Z,27.00
2022-11-09T17:03:13.044Z,27.50
2022-11-09T17:05:41.132Z,26.10
2022-11-09T17:08:08.860Z,26.90
2022-11-09T17:10:40.941Z,27.00
2022-11-09T17:13:09.431Z,27.37
2022-11-09T17:15:41.818Z,27.03
2022-11-09T17:18:09.989Z,29.20
2022-11-09T17:20:42.923Z,28.20
2022-11-09T17:23:11.045Z,27.67
2022-11-09T17:25:39.087Z,28.27
2022-11-09T17:28:07.077Z,27.50
2022-11-09T17:30:35.550Z,27.63
2022-11-09T17:33:04.533Z,27.73
2022-11-09T17:35:36.418Z,28.70
2022-11-09T17:38:04.323Z,27.67
2022-11-09T17:40:31.863Z,28.13
2022-11-09T17:42:59.589Z,28.70
2022-11-09T17:45:27.212Z,28.50
2022-11-09T17:47:54.773Z,29.63
2022-11-09T17:50:23.688Z,29.13
2022-11-09T17:52:51.556Z,28.90
2022-11-09T17:55:19.092Z,29.90
2022-11-09T17:57:46.636Z,30.53
2022-11-09T18:00:15.376Z,29.93
2022-11-09T18:02:42.934Z,29.83
2022-11-09T18:05:10.935Z,29.00
2022-11-09T18:07:39.832Z,31.37
2022-11-09T18:10:07.993Z,31.30
2022-11-09T18:12:35.547Z,31.30
2022-11-09T18:15:03.118Z,33.03
2022-11-09T18:17:30.698Z,32.80
2022-11-09T18:19:58.232Z,32.50
2022-11-09T18:22:25.779Z,32.50
2022-11-09T18:24:54.762Z,32.30
2022-11-09T18:27:26.084Z,32.30
2022-11-09T18:29:57.972Z,32.10
2022-11-09T18:32:25.496Z,32.53
2022-11-09T18:34:53.032Z,33.53
2022-11-09T18:37:20.562Z,33.03
2022-11-09T18:39:48.202Z,33.77
2022-11-09T18:42:17.093Z,34.30
2022-11-09T18:44:44.656Z,33.93
2022-11-09T18:47:13.653Z,33.07
2022-11-09T18:49:41.266Z,33.70
2022-11-09T18:52:08.820Z,33.60
2022-11-09T18:54:36.594Z,33.80
2022-11-09T18:57:04.577Z,32.70
2022-11-09T18:59:34.006Z,33.00
2022-11-09T19:02:01.675Z,33.77
2022-11-09T19:04:29.271Z,33.73
2022-11-09T19:06:56.897Z,34.97
2022-11-09T19:09:34.964Z,34.10
2022-11-09T19:12:05.866Z,34.77
2022-11-09T19:14:40.557Z,33.93
2022-11-09T19:17:12.040Z,34.27
2022-11-09T19:19:39.645Z,34.27
2022-11-09T19:22:16.755Z,34.40
2022-11-09T19:24:44.687Z,32.73
2022-11-09T19:27:12.642Z,33.30
2022-11-09T19:29:41.574Z,32.50
2022-11-09T19:32:10.620Z,33.83
2022-11-09T19:34:38.166Z,33.67
2022-11-09T19:37:05.728Z,32.70
2022-11-09T19:39:35.309Z,32.73
2022-11-09T19:42:03.758Z,34.03
2022-11-09T19:44:31.317Z,34.67
2022-11-09T19:47:00.613Z,35.53
2022-11-09T19:49:28.192Z,35.87
2022-11-09T19:51:56.154Z,35.37
2022-11-09T19:54:23.777Z,33.53
2022-11-09T19:56:51.327Z,34.43
2022-11-09T19:59:20.704Z,35.70
2022-11-09T20:01:48.282Z,34.27
2022-11-09T20:04:17.919Z,35.13
2022-11-09T20:06:45.970Z,34.13
2022-11-09T20:09:13.662Z,35.53
2022-11-09T20:11:59.078Z,35.20
2022-11-09T20:14:26.657Z,35.67
2022-11-09T20:17:00.570Z,33.90
2022-11-09T20:19:32.194Z,33.60
2022-11-09T20:21:59.860Z,34.43
2022-11-09T20:24:27.490Z,35.77
2022-11-09T20:26:55.045Z,34.73
2022-11-09T20:29:22.752Z,33.90
2022-11-09T20:31:50.613Z,34.13
2022-11-09T20:34:18.187Z,34.00
2022-11-09T20:36:47.080Z,34.63
2022-11-09T20:39:14.625Z,33.53
2022-11-09T20:41:42.182Z,34.30
2022-11-09T20:44:10.891Z,34.00
2022-11-09T20:46:38.548Z,32.80
2022-11-09T20:49:06.536Z,34.07
2022-11-09T20:51:34.124Z,34.50
2022-11-09T20:54:07.139Z,33.90
2022-11-09T20:56:35.153Z,34.30
2022-11-09T20:59:02.797Z,34.07
2022-11-09T21:01:30.363Z,33.00
2022-11-09T21:03:57.977Z,32.37
2022-11-09T21:06:25.504Z,31.80
2022-11-09T21:08:54.849Z,32.00
2022-11-09T21:11:28.510Z,33.73
2022-11-09T21:13:56.548Z,32.03
2022-11-09T21:16:24.775Z,32.50
2022-11-09T21:18:52.365Z,31.90
2022-11-09T21:21:21.802Z,32.37
2022-11-09T21:24:07.534Z,32.50
2022-11-09T21:26:53.976Z,32.77
2022-11-09T21:29:41.185Z,32.03
2022-11-09T21:32:10.605Z,31.70
2022-11-09T21:34:38.195Z,32.60
2022-11-09T21:37:06.067Z,31.90
2022-11-09T21:39:34.021Z,32.80
2022-11-09T21:42:04.089Z,32.20
2022-11-09T21:44:33.171Z,32.80
2022-11-09T21:47:01.537Z,31.50
2022-11-09T21:49:29.193Z,31.70
2022-11-09T21:51:56.758Z,31.23
2022-11-09T21:54:25.361Z,30.70
2022-11-09T21:56:53.716Z,31.40
2022-11-09T21:59:22.721Z,31.17
2022-11-09T22:01:52.001Z,31.03
2022-11-09T22:04:19.636Z,31.50
2022-11-09T22:06:47.236Z,31.27
2022-11-09T22:09:16.688Z,30.80
2022-11-09T22:12:01.664Z,31.30
2022-11-09T22:14:47.789Z,31.10
2022-11-09T22:17:15.356Z,30.57
2022-11-09T22:20:00.508Z,30.80
2022-11-09T22:22:30.164Z,31.43
2022-11-09T22:24:57.742Z,32.30
2022-11-09T22:27:25.312Z,31.67
2022-11-09T22:29:54.208Z,31.40
2022-11-09T22:32:22.056Z,31.43
2022-11-09T22:34:49.597Z,32.00
2022-11-09T22:37:17.276Z,31.20
2022-11-09T22:39:47.566Z,32.70
2022-11-09T22:42:15.436Z,32.87
2022-11-09T22:44:42.991Z,31.40
2022-11-09T22:47:12.166Z,31.77
2022-11-09T22:49:39.756Z,31.73
2022-11-09T22:52:07.301Z,31.77
2022-11-09T22:54:34.845Z,33.60
2022-11-09T22:57:02.413Z,32.97
2022-11-09T22:59:29.962Z,32.00
2022-11-09T23:01:57.702Z,32.43
2022-11-09T23:04:26.617Z,33.20
2022-11-09T23:06:54.288Z,31.90
2022-11-09T23:09:21.901Z,31.97
2022-11-09T23:11:49.455Z,31.93
2022-11-09T23:14:37.164Z,32.87
2022-11-09T23:17:25.354Z,33.10
2022-11-09T23:19:53.293Z,34.23
2022-11-09T23:22:20.826Z,33.70
2022-11-09T23:25:05.789Z,33.47
2022-11-09T23:27:33.335Z,32.77
2022-11-09T23:30:00.904Z,32.50
2022-11-09T23:32:28.440Z,32.50
2022-11-09T23:34:57.327Z,32.67
2022-11-09T23:37:24.864Z,32.70
2022-11-09T23:39:52.405Z,32.80
2022-11-09T23:42:19.928Z,33.27
2022-11-09T23:44:47.470Z,33.20
2022-11-09T23:47:15.013Z,34.57
2022-11-09T23:49:42.549Z,35.40
2022-11-09T23:52:11.994Z,33.87
2022-11-09T23:54:39.544Z,33.67
2022-11-09T23:57:07.165Z,33.70
2022-11-09T23:59:34.756Z,33.10
